ASP weather

Alice Springs Airport
Alice Springs, Northern Territory, Australia

Public forecast

Using degrees Celsius for public forecast. Weather courtesy of forecast.io.

METAR (pilot weather report)

Retrieved 2017/07/27 19:30 UTC (28 minutes ago):

YBAS 271930Z AUTO 31005KT 9999 // NCD 05/M07 Q1022 RF00.0/000.0

TAF (pilot weather forecast)

Retrieved 2017/07/27 18:00 UTC (2 hours ago):

TAF YBAS 271659Z 2718/2818 30005KT CAVOK FM280200 03008KT CAVOK FM281400 30005KT CAVOK